createdAt,value
2018-07-05T00:00:54.148Z,5.47
2018-07-05T00:05:08.676Z,4.60
2018-07-05T00:09:23.488Z,4.90
2018-07-05T00:13:38.148Z,7.73
2018-07-05T00:17:52.737Z,6.13
2018-07-05T00:22:07.286Z,4.90
2018-07-05T00:26:21.824Z,4.90
2018-07-05T00:30:36.504Z,5.43
2018-07-05T00:34:50.917Z,5.57
2018-07-05T00:39:05.997Z,4.83
2018-07-05T00:43:20.524Z,6.60
2018-07-05T00:47:35.021Z,6.63
2018-07-05T00:51:49.600Z,6.00
2018-07-05T00:56:04.112Z,5.57
2018-07-05T01:00:18.582Z,5.67
2018-07-05T01:04:33.225Z,5.77
2018-07-05T01:08:47.785Z,6.23
2018-07-05T01:13:02.546Z,5.90
2018-07-05T01:17:17.149Z,8.47
2018-07-05T01:21:31.885Z,7.07
2018-07-05T01:25:46.470Z,5.67
2018-07-05T01:30:01.084Z,7.43
2018-07-05T01:34:15.717Z,5.20
2018-07-05T01:38:30.397Z,5.63
2018-07-05T01:42:45.153Z,4.93
2018-07-05T01:46:59.622Z,6.30
2018-07-05T01:51:14.318Z,6.13
2018-07-05T01:55:28.896Z,6.07
2018-07-05T01:59:43.625Z,5.13
2018-07-05T02:03:58.169Z,7.63
2018-07-05T02:08:12.872Z,5.40
2018-07-05T02:12:27.509Z,3.47
2018-07-05T02:16:42.181Z,6.77
2018-07-05T02:20:56.817Z,0.10
2018-07-05T02:25:11.370Z,0.00
2018-07-05T02:29:25.965Z,0.43
2018-07-05T02:33:40.488Z,0.00
2018-07-05T02:38:00.715Z,0.30
2018-07-05T02:42:15.324Z,0.57
2018-07-05T02:46:29.797Z,0.63
2018-07-05T02:50:44.482Z,0.10
2018-07-05T02:54:59.186Z,0.77
2018-07-05T02:59:13.916Z,0.53
2018-07-05T03:03:29.048Z,0.50
2018-07-05T03:07:43.462Z,1.50
2018-07-05T03:11:58.133Z,0.57
2018-07-05T03:16:12.821Z,0.10
2018-07-05T03:20:27.551Z,0.00
2018-07-05T03:24:42.247Z,0.03
2018-07-05T03:28:56.777Z,0.00
2018-07-05T03:33:11.987Z,0.00
2018-07-05T03:37:26.466Z,0.10
2018-07-05T03:41:35.107Z,0.00
2018-07-05T03:45:50.164Z,0.23
2018-07-05T03:50:04.741Z,0.00
2018-07-05T03:54:13.415Z,0.00
2018-07-05T03:58:28.040Z,0.00
2018-07-05T04:02:42.802Z,0.57
2018-07-05T04:06:57.312Z,0.00
2018-07-05T04:11:11.993Z,0.00
2018-07-05T04:15:26.443Z,0.40
2018-07-05T04:19:39.547Z,0.00
2018-07-05T04:23:54.109Z,0.10
2018-07-05T04:28:08.784Z,0.00
2018-07-05T04:32:23.347Z,0.60
2018-07-05T04:36:38.133Z,0.10
2018-07-05T04:40:52.774Z,0.00
2018-07-05T04:45:07.493Z,0.00
2018-07-05T04:49:22.020Z,0.00
2018-07-05T04:53:36.683Z,0.80
2018-07-05T04:57:51.168Z,0.20
2018-07-05T05:02:05.836Z,0.00
2018-07-05T05:06:20.651Z,0.10
2018-07-05T05:10:35.920Z,1.43
2018-07-05T05:14:50.487Z,9.37
2018-07-05T05:19:05.260Z,8.70
2018-07-05T05:23:19.921Z,10.27
2018-07-05T05:27:34.624Z,9.20
2018-07-05T05:31:49.990Z,7.40
2018-07-05T05:36:04.452Z,11.33
2018-07-05T05:40:19.249Z,7.63
2018-07-05T05:44:33.897Z,13.03
2018-07-05T05:48:48.574Z,9.87
2018-07-05T05:53:03.052Z,9.83
2018-07-05T05:57:17.737Z,8.90
2018-07-05T06:01:32.389Z,9.10
2018-07-05T06:05:47.370Z,9.53
2018-07-05T06:10:01.929Z,12.33
2018-07-05T06:14:16.524Z,13.03
2018-07-05T06:18:31.155Z,10.00
2018-07-05T06:22:45.903Z,9.63
2018-07-05T06:27:00.404Z,8.17
2018-07-05T06:31:15.018Z,12.63
2018-07-05T06:35:23.980Z,13.62
2018-07-05T06:39:38.508Z,13.88
2018-07-05T06:43:52.968Z,11.75
2018-07-05T06:48:07.753Z,10.60
2018-07-05T06:52:22.414Z,15.70
2018-07-05T06:56:37.105Z,11.93
2018-07-05T07:00:51.757Z,11.15
2018-07-05T07:05:06.663Z,13.20
2018-07-05T07:09:21.181Z,17.30
2018-07-05T07:13:35.950Z,13.45
2018-07-05T07:17:50.548Z,19.17
2018-07-05T07:22:05.128Z,15.63
2018-07-05T07:26:20.420Z,17.23
2018-07-05T07:30:28.989Z,12.03
2018-07-05T07:34:43.863Z,12.43
2018-07-05T07:38:58.389Z,13.80
2018-07-05T07:43:00.593Z,15.90
2018-07-05T07:47:03.053Z,15.35
2018-07-05T07:51:05.258Z,13.75
2018-07-05T07:55:07.709Z,16.75
2018-07-05T07:59:09.911Z,21.15
2018-07-05T08:03:12.116Z,18.95
2018-07-05T08:07:14.672Z,18.25
2018-07-05T08:11:16.873Z,18.45
2018-07-05T08:15:19.336Z,14.98
2018-07-05T08:19:21.550Z,22.85
2018-07-05T08:23:23.761Z,21.70
2018-07-05T08:27:25.964Z,18.80
2018-07-05T08:31:28.237Z,21.82
2018-07-05T08:35:30.516Z,21.45
2018-07-05T08:39:32.732Z,25.25
2018-07-05T08:43:34.948Z,21.62
2018-07-05T08:47:37.149Z,19.37
2018-07-05T08:51:39.352Z,22.32
2018-07-05T08:55:41.573Z,23.02
2018-07-05T08:59:43.793Z,21.23
2018-07-05T09:03:45.995Z,26.62
2018-07-05T09:07:48.192Z,20.65
2018-07-05T09:11:50.864Z,18.12
2018-07-05T09:15:53.069Z,17.37
2018-07-05T09:19:55.275Z,20.95
2018-07-05T09:23:57.486Z,20.00
2018-07-05T09:27:59.685Z,19.05
2018-07-05T09:32:01.885Z,19.62
2018-07-05T09:36:04.093Z,23.10
2018-07-05T09:40:06.302Z,23.55
2018-07-05T09:44:08.501Z,21.05
2018-07-05T09:48:10.710Z,22.13
2018-07-05T09:52:12.905Z,21.87
2018-07-05T09:56:15.105Z,23.65
2018-07-05T10:00:17.332Z,25.92
2018-07-05T10:04:19.528Z,22.25
2018-07-05T10:08:21.982Z,23.10
2018-07-05T10:12:24.173Z,27.25
2018-07-05T10:16:26.372Z,24.70
2018-07-05T10:20:28.875Z,25.65
2018-07-05T10:24:31.064Z,24.57
2018-07-05T10:28:33.269Z,25.60
2018-07-05T10:32:47.904Z,24.25
2018-07-05T10:36:50.040Z,26.95
2018-07-05T10:41:04.639Z,24.75
2018-07-05T10:45:19.309Z,24.25
2018-07-05T10:49:33.986Z,21.95
2018-07-05T10:53:42.608Z,20.72
2018-07-05T10:57:57.077Z,24.50
2018-07-05T11:02:11.750Z,23.02
2018-07-05T11:06:26.468Z,26.52
2018-07-05T11:10:41.144Z,24.12
2018-07-05T11:14:55.793Z,22.75
2018-07-05T11:19:10.536Z,21.50
2018-07-05T11:23:25.103Z,20.30
2018-07-05T11:27:39.901Z,21.10
2018-07-05T11:31:48.606Z,19.30
2018-07-05T11:36:03.245Z,23.18
2018-07-05T11:40:17.844Z,21.62
2018-07-05T11:44:32.510Z,20.45
2018-07-05T11:48:47.223Z,17.05
2018-07-05T11:53:01.766Z,14.03
2018-07-05T11:57:16.484Z,12.50
2018-07-05T12:01:31.221Z,17.60
2018-07-05T12:05:45.904Z,14.43
2018-07-05T12:09:54.524Z,16.23
2018-07-05T12:14:09.313Z,18.23
2018-07-05T12:18:23.981Z,18.70
2018-07-05T12:22:38.590Z,15.53
2018-07-05T12:26:53.492Z,10.45
2018-07-05T12:31:08.228Z,14.03
2018-07-05T12:35:22.839Z,14.20
2018-07-05T12:39:37.641Z,11.90
2018-07-05T12:43:52.258Z,13.43
2018-07-05T12:48:06.864Z,11.48
2018-07-05T12:52:21.518Z,14.23
2018-07-05T12:56:36.159Z,15.85
2018-07-05T13:00:50.790Z,16.00
2018-07-05T13:05:05.376Z,15.35
2018-07-05T13:09:13.948Z,13.80
2018-07-05T13:13:28.603Z,14.33
2018-07-05T13:17:43.352Z,16.05
2018-07-05T13:21:57.977Z,9.75
2018-07-05T13:26:12.884Z,7.22
2018-07-05T13:30:27.446Z,8.68
2018-07-05T13:34:42.150Z,5.65
2018-07-05T13:38:50.843Z,5.40
2018-07-05T13:43:05.495Z,5.95
2018-07-05T13:47:20.205Z,5.33
2018-07-05T13:51:34.888Z,9.40
2018-07-05T13:55:49.529Z,7.30
2018-07-05T14:00:04.224Z,7.42
2018-07-05T14:04:18.655Z,7.92
2018-07-05T14:08:33.389Z,7.08
2018-07-05T14:12:42.057Z,6.95
2018-07-05T14:16:56.548Z,6.10
2018-07-05T14:21:11.321Z,5.30
2018-07-05T14:25:25.973Z,6.17
2018-07-05T14:29:40.744Z,6.92
2018-07-05T14:33:55.217Z,5.92
2018-07-05T14:38:09.885Z,4.90
2018-07-05T14:42:24.608Z,4.37
2018-07-05T14:46:39.129Z,5.28
2018-07-05T14:50:47.771Z,5.37
2018-07-05T14:55:02.581Z,4.87
2018-07-05T14:59:17.276Z,5.42
2018-07-05T15:03:25.832Z,5.55
2018-07-05T15:07:40.310Z,5.33
2018-07-05T15:11:55.126Z,5.80
2018-07-05T15:16:09.772Z,5.85
2018-07-05T15:20:24.257Z,7.78
2018-07-05T15:24:38.924Z,7.42
2018-07-05T15:28:53.532Z,5.85
2018-07-05T15:33:08.069Z,11.75
2018-07-05T15:37:22.673Z,8.20
2018-07-05T15:41:37.133Z,6.83
2018-07-05T15:45:51.781Z,3.58
2018-07-05T15:50:06.493Z,4.15
2018-07-05T15:54:21.332Z,4.92
2018-07-05T15:58:35.935Z,5.83
2018-07-05T16:02:50.601Z,3.55
2018-07-05T16:07:05.224Z,6.05
2018-07-05T16:11:19.888Z,5.47
2018-07-05T16:15:34.572Z,2.92
2018-07-05T16:19:49.308Z,3.70
2018-07-05T16:24:03.840Z,2.35
2018-07-05T16:28:18.376Z,5.33
2018-07-05T16:32:33.017Z,5.00
2018-07-05T16:36:47.528Z,4.37
2018-07-05T16:41:02.213Z,7.55
2018-07-05T16:45:16.887Z,3.45
2018-07-05T16:49:31.511Z,3.42
2018-07-05T16:53:46.002Z,6.03
2018-07-05T16:58:00.577Z,5.85
2018-07-05T17:02:15.180Z,11.75
2018-07-05T17:06:23.974Z,5.83
2018-07-05T17:10:38.567Z,4.25
2018-07-05T17:14:53.145Z,5.20
2018-07-05T17:19:07.743Z,4.10
2018-07-05T17:23:22.270Z,3.33
2018-07-05T17:27:36.848Z,3.70
2018-07-05T17:31:51.404Z,4.17
2018-07-05T17:36:06.034Z,5.83
2018-07-05T17:40:20.736Z,3.77
2018-07-05T17:44:35.421Z,3.67
2018-07-05T17:48:49.864Z,2.77
2018-07-05T17:53:04.573Z,5.67
2018-07-05T17:57:19.134Z,4.28
2018-07-05T18:01:33.717Z,4.95
2018-07-05T18:05:48.349Z,5.92
2018-07-05T18:10:03.162Z,4.40
2018-07-05T18:14:17.646Z,5.70
2018-07-05T18:18:26.198Z,3.60
2018-07-05T18:22:40.745Z,3.35
2018-07-05T18:26:49.456Z,2.70
2018-07-05T18:31:04.952Z,3.10
2018-07-05T18:35:19.529Z,3.40
2018-07-05T18:39:34.225Z,2.30
2018-07-05T18:43:48.824Z,3.95
2018-07-05T18:48:03.604Z,4.08
2018-07-05T18:52:18.193Z,4.95
2018-07-05T18:56:32.880Z,4.28
2018-07-05T19:00:47.452Z,2.77
2018-07-05T19:05:02.079Z,2.52
2018-07-05T19:09:16.784Z,2.60
2018-07-05T19:13:31.299Z,1.98
2018-07-05T19:17:46.044Z,2.20
2018-07-05T19:22:00.926Z,2.30
2018-07-05T19:26:15.449Z,2.20
2018-07-05T19:30:30.233Z,2.58
2018-07-05T19:34:44.800Z,6.40
2018-07-05T19:38:59.409Z,2.37
2018-07-05T19:43:14.042Z,3.92
2018-07-05T19:47:28.471Z,6.05
2018-07-05T19:51:42.876Z,3.12
2018-07-05T19:55:57.476Z,5.62
2018-07-05T20:00:12.129Z,2.58
2018-07-05T20:04:26.697Z,4.97
2018-07-05T20:08:41.287Z,6.55
2018-07-05T20:12:55.900Z,4.78
2018-07-05T20:17:10.433Z,3.52
2018-07-05T20:21:24.886Z,3.62
2018-07-05T20:25:39.517Z,4.67
2018-07-05T20:29:54.110Z,3.98
2018-07-05T20:34:08.698Z,4.58
2018-07-05T20:38:23.364Z,3.65
2018-07-05T20:42:38.117Z,3.65
2018-07-05T20:46:52.726Z,4.20
2018-07-05T20:51:07.364Z,5.83
2018-07-05T20:55:22.114Z,2.50
2018-07-05T20:59:36.734Z,5.25
2018-07-05T21:03:51.251Z,2.35
2018-07-05T21:08:05.977Z,2.52
2018-07-05T21:12:20.664Z,2.05
2018-07-05T21:16:35.334Z,2.20
2018-07-05T21:20:49.947Z,2.10
2018-07-05T21:25:04.788Z,1.98
2018-07-05T21:29:19.753Z,1.87
2018-07-05T21:33:34.398Z,3.00
2018-07-05T21:37:49.033Z,2.50
2018-07-05T21:42:03.700Z,3.10
2018-07-05T21:46:18.917Z,1.92
2018-07-05T21:50:33.388Z,3.17
2018-07-05T21:54:48.630Z,3.30
2018-07-05T21:59:03.233Z,1.72
2018-07-05T22:03:17.940Z,1.60
2018-07-05T22:07:32.727Z,3.50
2018-07-05T22:11:47.440Z,2.30
2018-07-05T22:16:02.047Z,2.00
2018-07-05T22:20:22.177Z,2.25
2018-07-05T22:24:42.189Z,5.47
2018-07-05T22:30:00.199Z,1.70
2018-07-05T22:34:14.835Z,1.70
2018-07-05T22:38:23.328Z,3.37
2018-07-05T22:42:37.903Z,1.93
2018-07-05T22:46:52.576Z,2.70
2018-07-05T22:51:07.132Z,1.50
2018-07-05T22:55:21.897Z,1.87
2018-07-05T22:59:36.624Z,2.47
2018-07-05T23:03:51.402Z,1.60
2018-07-05T23:08:05.938Z,3.47
2018-07-05T23:12:20.437Z,1.73
2018-07-05T23:16:35.267Z,2.10
2018-07-05T23:20:50.023Z,2.00
2018-07-05T23:25:05.736Z,2.20
2018-07-05T23:29:20.497Z,1.87
2018-07-05T23:33:35.085Z,3.13
2018-07-05T23:37:50.058Z,2.07
2018-07-05T23:42:04.522Z,1.97
2018-07-05T23:46:19.366Z,2.40
2018-07-05T23:50:33.959Z,4.27
2018-07-05T23:54:48.660Z,2.90
2018-07-05T23:59:03.350Z,2.67
